createdAt,value
2022-08-25T00:01:23.161Z,97160.34
2022-08-25T00:03:55.202Z,97162.84
2022-08-25T00:06:23.624Z,97153.94
2022-08-25T00:08:50.804Z,97157.88
2022-08-25T00:11:30.237Z,97162.41
2022-08-25T00:14:01.039Z,97153.38
2022-08-25T00:16:28.943Z,97158.13
2022-08-25T00:18:58.249Z,97161.38
2022-08-25T00:21:25.495Z,97159.69
2022-08-25T00:23:52.375Z,97158.50
2022-08-25T00:26:19.991Z,97160.97
2022-08-25T00:28:47.103Z,97158.69
2022-08-25T00:31:20.220Z,97163.28
2022-08-25T00:33:47.991Z,97152.34
2022-08-25T00:36:15.753Z,97148.94
2022-08-25T00:38:45.314Z,97155.50
2022-08-25T00:41:15.236Z,97150.34
2022-08-25T00:43:41.742Z,97150.97
2022-08-25T00:46:18.656Z,97148.78
2022-08-25T00:48:50.774Z,97157.75
2022-08-25T00:51:25.511Z,97148.78
2022-08-25T00:53:52.200Z,97152.94
2022-08-25T00:56:19.185Z,97145.16
2022-08-25T00:58:48.655Z,97145.41
2022-08-25T01:01:15.342Z,97140.75
2022-08-25T01:03:42.058Z,97138.06
2022-08-25T01:06:10.298Z,97130.50
2022-08-25T01:08:37.025Z,97140.53
2022-08-25T01:11:10.100Z,97135.59
2022-08-25T01:13:41.474Z,97143.63
2022-08-25T01:16:08.749Z,97140.94
2022-08-25T01:18:48.686Z,97138.13
2022-08-25T01:21:15.746Z,97144.84
2022-08-25T01:23:42.373Z,97141.84
2022-08-25T01:26:14.193Z,97137.97
2022-08-25T01:29:02.639Z,97142.44
2022-08-25T01:31:30.181Z,97136.72
2022-08-25T01:33:57.511Z,97137.13
2022-08-25T01:36:25.726Z,97136.28
2022-08-25T01:38:53.701Z,97133.03
2022-08-25T01:41:34.614Z,97130.56
2022-08-25T01:44:05.923Z,97121.56
2022-08-25T01:46:35.501Z,97121.97
2022-08-25T01:49:06.686Z,97124.66
2022-08-25T01:51:39.663Z,97130.19
2022-08-25T01:54:06.235Z,97134.44
2022-08-25T01:56:32.910Z,97127.28
2022-08-25T01:58:59.607Z,97129.78
2022-08-25T02:01:26.505Z,97129.38
2022-08-25T02:03:55.451Z,97129.41
2022-08-25T02:06:29.890Z,97123.69
2022-08-25T02:09:01.084Z,97123.72
2022-08-25T02:11:27.772Z,97126.59
2022-08-25T02:13:55.556Z,97131.06
2022-08-25T02:16:29.114Z,97124.56
2022-08-25T02:18:56.391Z,97127.25
2022-08-25T02:21:23.195Z,97123.56
2022-08-25T02:23:49.768Z,97126.81
2022-08-25T02:26:19.039Z,97122.91
2022-08-25T02:28:47.319Z,97131.28
2022-08-25T02:31:14.962Z,97133.31
2022-08-25T02:33:42.018Z,97129.72
2022-08-25T02:36:09.490Z,97131.31
2022-08-25T02:38:37.109Z,97129.94
2022-08-25T02:41:12.896Z,97140.75
2022-08-25T02:43:41.550Z,97128.31
2022-08-25T02:46:09.969Z,97130.41
2022-08-25T02:48:37.912Z,97135.31
2022-08-25T02:51:08.869Z,97127.13
2022-08-25T02:53:39.771Z,97119.75
2022-08-25T02:56:08.830Z,97120.59
2022-08-25T02:58:37.010Z,97113.00
2022-08-25T03:01:03.820Z,97109.59
2022-08-25T03:03:31.335Z,97112.25
2022-08-25T03:05:58.004Z,97109.59
2022-08-25T03:08:25.415Z,97104.69
2022-08-25T03:10:52.112Z,97098.53
2022-08-25T03:13:18.815Z,97105.75
2022-08-25T03:15:46.278Z,97092.06
2022-08-25T03:18:16.178Z,97097.81
2022-08-25T03:20:44.617Z,97094.53
2022-08-25T03:23:12.076Z,97088.00
2022-08-25T03:26:01.158Z,97089.44
2022-08-25T03:28:31.251Z,97080.25
2022-08-25T03:31:00.261Z,97084.38
2022-08-25T03:33:28.312Z,97081.91
2022-08-25T03:35:55.645Z,97085.16
2022-08-25T03:38:26.234Z,97091.91
2022-08-25T03:40:53.219Z,97089.22
2022-08-25T03:43:21.329Z,97097.00
2022-08-25T03:45:48.439Z,97089.63
2022-08-25T03:48:16.211Z,97094.94
2022-08-25T03:50:50.516Z,97096.97
2022-08-25T03:53:18.942Z,97090.44
2022-08-25T03:55:45.574Z,97085.78
2022-08-25T03:58:12.467Z,97092.69
2022-08-25T04:00:39.536Z,97090.88
2022-08-25T04:03:06.434Z,97088.00
2022-08-25T04:05:33.194Z,97089.66
2022-08-25T04:08:01.993Z,97087.41
2022-08-25T04:10:29.461Z,97083.53
2022-08-25T04:12:57.092Z,97082.31
2022-08-25T04:15:30.016Z,97088.81
2022-08-25T04:17:58.941Z,97092.69
2022-08-25T04:20:26.001Z,97094.53
2022-08-25T04:22:52.745Z,97100.88
2022-08-25T04:25:19.396Z,97097.00
2022-08-25T04:27:46.050Z,97098.22
2022-08-25T04:30:13.338Z,97095.38
2022-08-25T04:32:40.016Z,97088.03
2022-08-25T04:35:07.635Z,97087.22
2022-08-25T04:37:34.822Z,97085.34
2022-08-25T04:40:02.193Z,97083.94
2022-08-25T04:42:28.805Z,97079.84
2022-08-25T04:44:55.900Z,97084.75
2022-08-25T04:47:22.765Z,97085.16
2022-08-25T04:49:49.557Z,97082.69
2022-08-25T04:52:16.315Z,97084.53
2022-08-25T04:54:43.827Z,97086.34
2022-08-25T04:57:10.784Z,97084.72
2022-08-25T04:59:37.831Z,97089.19
2022-08-25T05:02:06.719Z,97097.53
2022-08-25T05:04:36.326Z,97096.47
2022-08-25T05:07:04.268Z,97096.28
2022-08-25T05:09:32.069Z,97091.34
2022-08-25T05:11:59.443Z,97094.22
2022-08-25T05:14:26.847Z,97095.44
2022-08-25T05:16:55.107Z,97097.59
2022-08-25T05:19:23.996Z,97106.94
2022-08-25T05:21:51.423Z,97101.22
2022-08-25T05:24:19.187Z,97099.59
2022-08-25T05:26:46.027Z,97099.66
2022-08-25T05:29:13.186Z,97103.22
2022-08-25T05:31:43.949Z,97100.31
2022-08-25T05:34:12.706Z,97097.59
2022-08-25T05:36:43.358Z,97098.38
2022-08-25T05:39:10.815Z,97099.72
2022-08-25T05:41:38.123Z,97099.47
2022-08-25T05:44:05.117Z,97093.69
2022-08-25T05:46:31.984Z,97095.94
2022-08-25T05:48:59.082Z,97100.50
2022-08-25T05:51:26.374Z,97096.94
2022-08-25T05:53:53.064Z,97084.41
2022-08-25T05:56:21.009Z,97087.56
2022-08-25T05:58:47.838Z,97085.63
2022-08-25T06:01:45.477Z,97086.53
2022-08-25T06:04:13.844Z,97082.78
2022-08-25T06:06:41.288Z,97082.31
2022-08-25T06:09:09.559Z,97079.47
2022-08-25T06:11:38.086Z,97072.81
2022-08-25T06:14:04.834Z,97078.25
2022-08-25T06:16:31.939Z,97082.94
2022-08-25T06:18:58.769Z,97077.66
2022-08-25T06:21:25.698Z,97077.00
2022-08-25T06:23:52.740Z,97074.72
2022-08-25T06:26:21.205Z,97079.69
2022-08-25T06:28:49.233Z,97075.09
2022-08-25T06:31:16.033Z,97074.94
2022-08-25T06:33:44.178Z,97073.47
2022-08-25T06:36:10.759Z,97077.59
2022-08-25T06:38:37.378Z,97068.94
2022-08-25T06:41:05.990Z,97070.88
2022-08-25T06:43:34.220Z,97056.91
2022-08-25T06:46:10.216Z,97051.81
2022-08-25T06:48:37.453Z,97045.59
2022-08-25T06:51:08.693Z,97053.56
2022-08-25T06:53:38.145Z,97043.03
2022-08-25T06:56:06.753Z,97050.81
2022-08-25T06:58:33.967Z,97050.53
2022-08-25T07:01:19.645Z,97049.22
2022-08-25T07:03:46.937Z,97054.22
2022-08-25T07:06:14.887Z,97048.97
2022-08-25T07:08:46.147Z,97053.69
2022-08-25T07:11:16.087Z,97051.91
2022-08-25T07:13:44.198Z,97054.91
2022-08-25T07:16:15.407Z,97050.63
2022-08-25T07:18:42.722Z,97045.50
2022-08-25T07:21:12.438Z,97051.22
2022-08-25T07:23:41.135Z,97050.09
2022-08-25T07:29:13.601Z,97050.50
2022-08-25T07:31:40.946Z,97048.97
2022-08-25T07:34:27.065Z,97039.84
2022-08-25T07:36:55.986Z,97040.97
2022-08-25T07:39:24.334Z,97038.56
2022-08-25T07:41:51.995Z,97037.19
2022-08-25T07:44:19.927Z,97037.16
2022-08-25T07:46:46.692Z,97042.81
2022-08-25T07:49:16.729Z,97040.63
2022-08-25T07:52:04.322Z,97034.25
2022-08-25T07:54:33.966Z,97025.34
2022-08-25T07:57:06.187Z,97026.28
2022-08-25T07:59:39.985Z,97027.31
2022-08-25T08:02:12.564Z,97022.22
2022-08-25T08:04:49.522Z,97023.31
2022-08-25T08:07:22.897Z,97026.91
2022-08-25T08:09:56.421Z,97026.91
2022-08-25T08:12:38.247Z,97026.31
2022-08-25T08:15:05.301Z,97030.69
2022-08-25T08:17:37.558Z,97018.75
2022-08-25T08:20:09.062Z,97018.16
2022-08-25T08:22:38.094Z,97018.63
2022-08-25T08:25:06.337Z,97022.56
2022-08-25T08:27:37.405Z,97021.66
2022-08-25T08:30:06.207Z,97023.22
2022-08-25T08:32:53.300Z,97020.41
2022-08-25T08:35:19.418Z,97022.44
2022-08-25T08:37:46.340Z,97022.25
2022-08-25T08:40:18.532Z,97017.19
2022-08-25T08:43:07.032Z,97015.75
2022-08-25T08:45:53.732Z,97010.38
2022-08-25T08:48:43.237Z,97016.38
2022-08-25T08:51:32.770Z,97003.91
2022-08-25T08:54:15.498Z,97004.41
2022-08-25T08:56:48.146Z,97004.19
2022-08-25T08:59:29.877Z,96999.25
2022-08-25T09:02:00.424Z,97005.72
2022-08-25T09:04:37.328Z,97005.25
2022-08-25T09:07:11.113Z,97002.88
2022-08-25T09:09:41.466Z,97000.50
2022-08-25T09:12:34.111Z,97002.00
2022-08-25T09:15:19.364Z,96993.25
2022-08-25T09:18:07.046Z,96995.69
2022-08-25T09:20:41.072Z,96986.44
2022-08-25T09:23:21.671Z,96984.03
2022-08-25T09:26:17.917Z,96982.94
2022-08-25T09:28:53.401Z,96980.31
2022-08-25T09:31:29.793Z,96982.84
2022-08-25T09:34:00.759Z,96979.13
2022-08-25T09:36:29.205Z,96975.56
2022-08-25T09:38:55.789Z,96968.63
2022-08-25T09:41:47.223Z,96972.22
2022-08-25T09:44:27.427Z,96962.69
2022-08-25T09:47:13.532Z,96967.06
2022-08-25T09:49:42.943Z,96966.63
2022-08-25T09:52:28.088Z,96966.72
2022-08-25T09:54:56.841Z,96950.84
2022-08-25T09:57:36.127Z,96951.91
2022-08-25T10:00:18.573Z,96962.50
2022-08-25T10:03:06.047Z,96957.88
2022-08-25T10:05:36.587Z,96963.19
2022-08-25T10:08:14.689Z,96955.34
2022-08-25T10:10:55.294Z,96942.16
2022-08-25T10:13:32.355Z,96933.28
2022-08-25T10:16:30.830Z,96944.25
2022-08-25T10:19:11.017Z,96940.16
2022-08-25T10:21:40.419Z,96941.53
2022-08-25T10:24:09.648Z,96938.94
2022-08-25T10:26:42.986Z,96926.94
2022-08-25T10:29:40.848Z,96934.41
2022-08-25T10:32:27.666Z,96924.09
2022-08-25T10:34:56.814Z,96927.06
2022-08-25T10:37:45.016Z,96934.81
2022-08-25T10:40:28.593Z,96926.16
2022-08-25T10:43:19.984Z,96917.25
2022-08-25T10:46:14.861Z,96911.22
2022-08-25T10:48:58.375Z,96917.41
2022-08-25T10:51:43.646Z,96909.53
2022-08-25T10:54:13.374Z,96906.50
2022-08-25T10:57:18.678Z,96902.91
2022-08-25T11:00:03.538Z,96895.13
2022-08-25T11:03:06.996Z,96898.06
2022-08-25T11:05:40.250Z,96897.91
2022-08-25T11:08:24.341Z,96895.19
2022-08-25T11:11:02.505Z,96890.75
2022-08-25T11:13:58.843Z,96887.38
2022-08-25T11:17:12.781Z,96886.22
2022-08-25T11:19:44.108Z,96881.34
2022-08-25T11:22:19.577Z,96886.59
2022-08-25T11:24:55.156Z,96884.09
2022-08-25T11:27:24.351Z,96877.56
2022-08-25T11:30:06.108Z,96891.69
2022-08-25T11:32:35.671Z,96885.84
2022-08-25T11:35:06.933Z,96884.81
2022-08-25T11:37:34.255Z,96891.56
2022-08-25T11:40:03.926Z,96886.00
2022-08-25T11:42:59.048Z,96883.25
2022-08-25T11:45:38.641Z,96881.78
2022-08-25T11:48:12.770Z,96879.19
2022-08-25T11:51:00.404Z,96878.69
2022-08-25T11:53:30.908Z,96878.06
2022-08-25T11:56:02.883Z,96879.81
2022-08-25T11:58:49.801Z,96875.78
2022-08-25T12:01:32.666Z,96875.81
2022-08-25T12:04:33.809Z,96862.41
2022-08-25T12:07:06.888Z,96865.66
2022-08-25T12:09:55.020Z,96860.13
2022-08-25T12:12:29.850Z,96857.44
2022-08-25T12:15:34.105Z,96845.63
2022-08-25T12:18:45.567Z,96849.28
2022-08-25T12:21:15.217Z,96834.78
2022-08-25T12:23:46.424Z,96837.50
2022-08-25T12:26:29.561Z,96836.63
2022-08-25T12:29:21.446Z,96839.19
2022-08-25T12:31:59.125Z,96843.38
2022-08-25T12:34:43.096Z,96837.75
2022-08-25T12:37:20.726Z,96842.03
2022-08-25T12:39:50.735Z,96835.50
2022-08-25T12:42:45.010Z,96833.69
2022-08-25T12:45:20.292Z,96830.78
2022-08-25T12:47:49.498Z,96828.28
2022-08-25T12:50:50.376Z,96830.69
2022-08-25T12:53:39.680Z,96831.22
2022-08-25T12:56:28.310Z,96838.91
2022-08-25T12:59:23.744Z,96828.06
2022-08-25T13:02:06.874Z,96833.59
2022-08-25T13:05:11.428Z,96830.09
2022-08-25T13:07:56.574Z,96826.00
2022-08-25T13:10:35.150Z,96818.47
2022-08-25T13:13:19.697Z,96822.84
2022-08-25T13:15:58.002Z,96815.13
2022-08-25T13:18:30.928Z,96806.53
2022-08-25T13:21:16.101Z,96805.28
2022-08-25T13:23:45.911Z,96793.06
2022-08-25T13:26:23.539Z,96788.16
2022-08-25T13:28:58.080Z,96792.47
2022-08-25T13:31:29.262Z,96788.44
2022-08-25T13:33:59.497Z,96790.00
2022-08-25T13:36:54.035Z,96793.72
2022-08-25T13:39:45.986Z,96779.69
2022-08-25T13:42:17.447Z,96781.72
2022-08-25T13:44:52.346Z,96765.06
2022-08-25T13:47:44.961Z,96774.31
2022-08-25T13:50:26.339Z,96774.22
2022-08-25T13:52:54.751Z,96768.72
2022-08-25T13:55:51.447Z,96761.66
2022-08-25T13:58:38.638Z,96763.09
2022-08-25T14:01:48.372Z,96765.50
2022-08-25T14:04:31.380Z,96756.66
2022-08-25T14:07:34.879Z,96757.06
2022-08-25T14:10:29.733Z,96752.34
2022-08-25T14:13:30.883Z,96749.66
2022-08-25T14:16:09.897Z,96749.84
2022-08-25T14:18:36.754Z,96745.81
2022-08-25T14:21:10.806Z,96752.66
2022-08-25T14:23:38.684Z,96752.22
2022-08-25T14:26:06.417Z,96749.84
2022-08-25T14:28:33.550Z,96742.00
2022-08-25T14:31:05.430Z,96746.44
2022-08-25T14:33:55.898Z,96736.22
2022-08-25T14:36:22.709Z,96736.00
2022-08-25T14:38:54.611Z,96732.38
2022-08-25T14:41:23.856Z,96731.47
2022-08-25T14:43:50.643Z,96733.88
2022-08-25T14:46:21.438Z,96726.06
2022-08-25T14:48:54.572Z,96732.59
2022-08-25T14:51:23.534Z,96730.25
2022-08-25T14:53:54.213Z,96725.09
2022-08-25T14:56:21.943Z,96720.94
2022-08-25T14:58:52.900Z,96717.03
2022-08-25T15:01:29.038Z,96714.94
2022-08-25T15:04:12.661Z,96713.34
2022-08-25T15:06:43.791Z,96711.44
2022-08-25T15:09:13.137Z,96711.31
2022-08-25T15:11:52.253Z,96714.03
2022-08-25T15:14:29.026Z,96715.13
2022-08-25T15:17:00.498Z,96705.34
2022-08-25T15:19:27.676Z,96705.72
2022-08-25T15:21:57.711Z,96703.81
2022-08-25T15:24:27.010Z,96702.69
2022-08-25T15:26:57.067Z,96698.16
2022-08-25T15:29:27.560Z,96698.44
2022-08-25T15:31:54.635Z,96705.75
2022-08-25T15:34:21.443Z,96703.44
2022-08-25T15:36:49.566Z,96696.31
2022-08-25T15:39:17.945Z,96695.25
2022-08-25T15:41:52.487Z,96701.75
2022-08-25T15:44:19.474Z,96693.44
2022-08-25T15:46:49.481Z,96696.09
2022-08-25T15:49:20.940Z,96691.31
2022-08-25T15:51:50.569Z,96695.41
2022-08-25T15:54:17.264Z,96687.50
2022-08-25T15:56:44.467Z,96686.69
2022-08-25T15:59:13.539Z,96685.97
2022-08-25T16:01:41.618Z,96686.31
2022-08-25T16:04:08.229Z,96684.50
2022-08-25T16:06:34.905Z,96691.41
2022-08-25T16:09:02.297Z,96693.53
2022-08-25T16:11:30.817Z,96689.66
2022-08-25T16:13:58.043Z,96684.09
2022-08-25T16:16:26.753Z,96676.28
2022-08-25T16:18:54.107Z,96680.59
2022-08-25T16:21:25.656Z,96683.09
2022-08-25T16:23:58.870Z,96680.25
2022-08-25T16:26:26.258Z,96679.00
2022-08-25T16:28:52.985Z,96675.06
2022-08-25T16:31:19.799Z,96678.06
2022-08-25T16:33:46.810Z,96667.03
2022-08-25T16:36:20.042Z,96662.13
2022-08-25T16:38:50.296Z,96664.16
2022-08-25T16:41:24.792Z,96681.28
2022-08-25T16:43:52.095Z,96675.84
2022-08-25T16:46:21.035Z,96670.09
2022-08-25T16:48:48.772Z,96672.91
2022-08-25T16:51:19.297Z,96669.19
2022-08-25T16:54:08.223Z,96672.00
2022-08-25T16:56:37.044Z,96665.38
2022-08-25T16:59:06.356Z,96671.59
2022-08-25T17:01:35.470Z,96674.50
2022-08-25T17:04:02.669Z,96669.16
2022-08-25T17:06:33.877Z,96668.22
2022-08-25T17:09:00.581Z,96666.72
2022-08-25T17:11:30.216Z,96665.28
2022-08-25T17:14:00.268Z,96666.03
2022-08-25T17:16:30.300Z,96674.78
2022-08-25T17:19:00.242Z,96672.91
2022-08-25T17:21:32.991Z,96674.16
2022-08-25T17:24:00.386Z,96667.94
2022-08-25T17:26:29.121Z,96669.19
2022-08-25T17:28:59.672Z,96671.38
2022-08-25T17:31:27.086Z,96682.13
2022-08-25T17:33:55.193Z,96675.03
2022-08-25T17:36:27.129Z,96687.06
2022-08-25T17:38:55.402Z,96684.72
2022-08-25T17:41:24.052Z,96682.44
2022-08-25T17:43:50.768Z,96676.28
2022-08-25T17:46:17.760Z,96678.50
2022-08-25T17:48:44.885Z,96682.94
2022-08-25T17:51:12.367Z,96685.81
2022-08-25T17:53:39.211Z,96683.16
2022-08-25T17:56:10.760Z,96681.66
2022-08-25T17:58:38.317Z,96690.09
2022-08-25T18:01:06.224Z,96689.03
2022-08-25T18:03:33.957Z,96686.94
2022-08-25T18:06:00.994Z,96689.16
2022-08-25T18:08:34.902Z,96687.34
2022-08-25T18:11:03.410Z,96695.94
2022-08-25T18:13:31.512Z,96689.75
2022-08-25T18:15:58.774Z,96691.41
2022-08-25T18:18:25.564Z,96698.78
2022-08-25T18:20:55.272Z,96695.34
2022-08-25T18:23:21.925Z,96704.78
2022-08-25T18:25:49.429Z,96699.75
2022-08-25T18:28:16.604Z,96699.75
2022-08-25T18:30:43.340Z,96694.44
2022-08-25T18:33:10.601Z,96706.28
2022-08-25T18:35:37.960Z,96702.81
2022-08-25T18:38:24.649Z,96704.38
2022-08-25T18:40:57.662Z,96709.25
2022-08-25T18:43:24.660Z,96709.56
2022-08-25T18:45:51.565Z,96715.75
2022-08-25T18:48:23.748Z,96718.22
2022-08-25T18:50:54.802Z,96717.97
2022-08-25T18:53:30.529Z,96724.13
2022-08-25T18:56:05.222Z,96710.97
2022-08-25T18:58:32.009Z,96719.88
2022-08-25T19:01:00.866Z,96715.28
2022-08-25T19:03:27.910Z,96720.16
2022-08-25T19:05:57.573Z,96716.66
2022-08-25T19:08:24.901Z,96719.06
2022-08-25T19:10:54.255Z,96725.53
2022-08-25T19:13:22.532Z,96721.47
2022-08-25T19:15:50.909Z,96727.41
2022-08-25T19:18:19.304Z,96726.06
2022-08-25T19:20:52.943Z,96719.91
2022-08-25T19:23:19.859Z,96721.25
2022-08-25T19:25:46.706Z,96713.97
2022-08-25T19:28:13.823Z,96717.16
2022-08-25T19:30:49.941Z,96712.91
2022-08-25T19:33:42.366Z,96716.91
2022-08-25T19:36:08.495Z,96716.88
2022-08-25T19:38:36.742Z,96722.00
2022-08-25T19:41:10.595Z,96718.19
2022-08-25T19:43:50.667Z,96717.66
2022-08-25T19:46:25.644Z,96715.22
2022-08-25T19:48:59.973Z,96720.28
2022-08-25T19:51:28.874Z,96722.44
2022-08-25T19:53:58.945Z,96720.81
2022-08-25T19:56:28.277Z,96714.38
2022-08-25T19:58:55.555Z,96712.19
2022-08-25T20:01:22.177Z,96715.63
2022-08-25T20:03:48.928Z,96722.34
2022-08-25T20:06:16.284Z,96720.41
2022-08-25T20:08:43.477Z,96725.16
2022-08-25T20:11:10.231Z,96721.16
2022-08-25T20:13:37.129Z,96718.53
2022-08-25T20:16:04.300Z,96727.59
2022-08-25T20:18:32.470Z,96730.00
2022-08-25T20:20:59.210Z,96731.81
2022-08-25T20:23:44.762Z,96736.34
2022-08-25T20:26:11.390Z,96742.94
2022-08-25T20:28:42.038Z,96737.38
2022-08-25T20:31:09.375Z,96736.53
2022-08-25T20:33:36.171Z,96739.78
2022-08-25T20:36:04.875Z,96737.63
2022-08-25T20:38:32.241Z,96739.97
2022-08-25T20:41:00.836Z,96733.78
2022-08-25T20:43:30.298Z,96735.13
2022-08-25T20:46:04.952Z,96743.84
2022-08-25T20:48:32.205Z,96742.03
2022-08-25T20:50:58.963Z,96740.50
2022-08-25T20:53:26.169Z,96739.66
2022-08-25T20:55:52.902Z,96745.00
2022-08-25T20:58:20.351Z,96743.88
2022-08-25T21:00:47.453Z,96755.16
2022-08-25T21:03:14.045Z,96759.16
2022-08-25T21:05:42.785Z,96760.34
2022-08-25T21:08:10.439Z,96762.47
2022-08-25T21:10:37.602Z,96755.13
2022-08-25T21:13:04.263Z,96759.47
2022-08-25T21:15:31.509Z,96759.63
2022-08-25T21:17:58.368Z,96761.97
2022-08-25T21:20:26.369Z,96763.72
2022-08-25T21:22:53.488Z,96766.00
2022-08-25T21:25:21.747Z,96770.69
2022-08-25T21:27:49.298Z,96760.31
2022-08-25T21:30:16.760Z,96761.34
2022-08-25T21:32:52.922Z,96765.00
2022-08-25T21:35:22.405Z,96765.31
2022-08-25T21:37:53.228Z,96759.91
2022-08-25T21:40:21.498Z,96756.47
2022-08-25T21:42:48.898Z,96759.13
2022-08-25T21:45:15.693Z,96763.69
2022-08-25T21:47:42.780Z,96755.09
2022-08-25T21:50:13.119Z,96755.53
2022-08-25T21:52:39.768Z,96760.63
2022-08-25T21:55:15.841Z,96757.72
2022-08-25T21:57:43.345Z,96752.66
2022-08-25T22:00:11.628Z,96759.25
2022-08-25T22:02:38.591Z,96743.59
2022-08-25T22:05:09.356Z,96743.28
2022-08-25T22:07:41.591Z,96744.84
2022-08-25T22:10:09.522Z,96739.59
2022-08-25T22:12:44.025Z,96742.09
2022-08-25T22:15:13.572Z,96737.50
2022-08-25T22:17:40.649Z,96739.84
2022-08-25T22:20:08.882Z,96737.19
2022-08-25T22:22:35.781Z,96734.66
2022-08-25T22:25:02.782Z,96739.78
2022-08-25T22:27:30.387Z,96747.81
2022-08-25T22:34:51.333Z,96739.75
2022-08-25T22:37:18.204Z,96736.81
2022-08-25T22:39:45.735Z,96736.72
2022-08-25T22:42:12.590Z,96736.81
2022-08-25T22:44:40.065Z,96738.44
2022-08-25T22:47:07.694Z,96725.63
2022-08-25T22:49:35.518Z,96721.59
2022-08-25T22:52:02.558Z,96725.97
2022-08-25T22:54:29.971Z,96718.47
2022-08-25T22:57:05.930Z,96713.28
2022-08-25T22:59:33.331Z,96716.59
2022-08-25T23:02:02.377Z,96714.75
2022-08-25T23:04:29.078Z,96721.78
2022-08-25T23:06:56.086Z,96718.50
2022-08-25T23:09:23.600Z,96711.34
2022-08-25T23:11:51.707Z,96717.38
2022-08-25T23:14:18.946Z,96706.13
2022-08-25T23:16:45.642Z,96710.78
2022-08-25T23:19:13.867Z,96708.22
2022-08-25T23:22:00.461Z,96701.00
2022-08-25T23:24:29.844Z,96706.94
2022-08-25T23:27:01.974Z,96712.50
2022-08-25T23:29:29.074Z,96714.72
2022-08-25T23:31:57.290Z,96717.69
2022-08-25T23:34:24.803Z,96704.72
2022-08-25T23:36:51.725Z,96708.44
2022-08-25T23:39:18.397Z,96715.31
2022-08-25T23:41:48.288Z,96714.56
2022-08-25T23:44:17.303Z,96710.75
2022-08-25T23:46:45.342Z,96712.75
2022-08-25T23:49:14.225Z,96719.88
2022-08-25T23:51:44.990Z,96712.50
2022-08-25T23:54:12.834Z,96710.38
2022-08-25T23:56:44.497Z,96710.94
2022-08-25T23:59:13.159Z,96705.69
